sensor_id;sensor_type;location;lat;lon;timestamp;temperature;humidity
67529;DHT22;54366;51.980;5.856;2024-03-08T00:00:12;5.60;73.30
67529;DHT22;54366;51.980;5.856;2024-03-08T00:02:39;5.60;73.40
67529;DHT22;54366;51.980;5.856;2024-03-08T00:05:06;5.60;73.20
67529;DHT22;54366;51.980;5.856;2024-03-08T00:07:35;5.50;73.10
67529;DHT22;54366;51.980;5.856;2024-03-08T00:10:06;5.50;73.00
67529;DHT22;54366;51.980;5.856;2024-03-08T00:12:33;5.50;73.00
67529;DHT22;54366;51.980;5.856;2024-03-08T00:14:59;5.50;73.40
67529;DHT22;54366;51.980;5.856;2024-03-08T00:17:26;5.50;72.70
67529;DHT22;54366;51.980;5.856;2024-03-08T00:19:53;5.40;72.70
67529;DHT22;54366;51.980;5.856;2024-03-08T00:22:19;5.40;72.70
67529;DHT22;54366;51.980;5.856;2024-03-08T00:24:46;5.50;72.50
67529;DHT22;54366;51.980;5.856;2024-03-08T00:27:12;5.40;72.50
67529;DHT22;54366;51.980;5.856;2024-03-08T00:29:38;5.40;72.30
67529;DHT22;54366;51.980;5.856;2024-03-08T00:32:05;5.40;72.50
67529;DHT22;54366;51.980;5.856;2024-03-08T00:34:36;5.30;72.40
67529;DHT22;54366;51.980;5.856;2024-03-08T00:37:04;5.40;72.20
67529;DHT22;54366;51.980;5.856;2024-03-08T00:39:30;5.30;72.00
67529;DHT22;54366;51.980;5.856;2024-03-08T00:41:56;5.30;72.10
67529;DHT22;54366;51.980;5.856;2024-03-08T00:44:23;5.20;71.90
67529;DHT22;54366;51.980;5.856;2024-03-08T00:46:50;5.20;72.10
67529;DHT22;54366;51.980;5.856;2024-03-08T00:49:17;5.20;72.00
67529;DHT22;54366;51.980;5.856;2024-03-08T00:51:43;5.20;71.90
67529;DHT22;54366;51.980;5.856;2024-03-08T00:54:10;5.20;71.90
67529;DHT22;54366;51.980;5.856;2024-03-08T00:56:36;5.20;71.70
67529;DHT22;54366;51.980;5.856;2024-03-08T00:59:06;5.10;71.70
67529;DHT22;54366;51.980;5.856;2024-03-08T01:01:33;5.10;71.90
67529;DHT22;54366;51.980;5.856;2024-03-08T01:03:59;5.10;71.80
67529;DHT22;54366;51.980;5.856;2024-03-08T01:06:26;5.10;71.70
67529;DHT22;54366;51.980;5.856;2024-03-08T01:08:53;5.10;71.40
67529;DHT22;54366;51.980;5.856;2024-03-08T01:11:19;5.10;71.50
67529;DHT22;54366;51.980;5.856;2024-03-08T01:13:46;5.10;71.60
67529;DHT22;54366;51.980;5.856;2024-03-08T01:16:13;5.10;71.60
67529;DHT22;54366;51.980;5.856;2024-03-08T01:18:39;5.10;71.70
67529;DHT22;54366;51.980;5.856;2024-03-08T01:21:06;5.10;71.60
67529;DHT22;54366;51.980;5.856;2024-03-08T01:23:32;5.00;71.00
67529;DHT22;54366;51.980;5.856;2024-03-08T01:25:59;5.00;71.30
67529;DHT22;54366;51.980;5.856;2024-03-08T01:28:26;5.00;71.30
67529;DHT22;54366;51.980;5.856;2024-03-08T01:30:52;5.00;71.20
67529;DHT22;54366;51.980;5.856;2024-03-08T01:33:26;5.00;70.80
67529;DHT22;54366;51.980;5.856;2024-03-08T01:35:55;5.00;70.80
67529;DHT22;54366;51.980;5.856;2024-03-08T01:38:23;4.90;70.70
67529;DHT22;54366;51.980;5.856;2024-03-08T01:40:52;4.90;70.40
67529;DHT22;54366;51.980;5.856;2024-03-08T01:43:20;4.90;70.40
67529;DHT22;54366;51.980;5.856;2024-03-08T01:45:47;4.90;70.20
67529;DHT22;54366;51.980;5.856;2024-03-08T01:48:15;4.90;70.40
67529;DHT22;54366;51.980;5.856;2024-03-08T01:50:43;4.90;70.40
67529;DHT22;54366;51.980;5.856;2024-03-08T01:53:10;4.80;70.10
67529;DHT22;54366;51.980;5.856;2024-03-08T01:55:38;4.80;70.10
67529;DHT22;54366;51.980;5.856;2024-03-08T01:58:05;4.80;70.20
67529;DHT22;54366;51.980;5.856;2024-03-08T02:00:33;4.80;70.00
67529;DHT22;54366;51.980;5.856;2024-03-08T02:03:00;4.80;70.00
67529;DHT22;54366;51.980;5.856;2024-03-08T02:05:27;4.80;69.80
67529;DHT22;54366;51.980;5.856;2024-03-08T02:07:54;4.70;69.80
67529;DHT22;54366;51.980;5.856;2024-03-08T02:10:21;4.70;69.80
67529;DHT22;54366;51.980;5.856;2024-03-08T02:12:48;4.70;69.90
67529;DHT22;54366;51.980;5.856;2024-03-08T02:15:15;4.70;69.80
67529;DHT22;54366;51.980;5.856;2024-03-08T02:17:41;4.70;70.00
67529;DHT22;54366;51.980;5.856;2024-03-08T02:20:09;4.70;69.80
67529;DHT22;54366;51.980;5.856;2024-03-08T02:22:37;4.60;70.00
67529;DHT22;54366;51.980;5.856;2024-03-08T02:25:04;4.60;69.90
67529;DHT22;54366;51.980;5.856;2024-03-08T02:27:31;4.60;69.90
67529;DHT22;54366;51.980;5.856;2024-03-08T02:29:59;4.60;70.00
67529;DHT22;54366;51.980;5.856;2024-03-08T02:32:26;4.60;69.80
67529;DHT22;54366;51.980;5.856;2024-03-08T02:34:56;4.60;69.60
67529;DHT22;54366;51.980;5.856;2024-03-08T02:37:25;4.50;69.60
67529;DHT22;54366;51.980;5.856;2024-03-08T02:39:52;4.50;69.70
67529;DHT22;54366;51.980;5.856;2024-03-08T02:42:19;4.50;69.70
67529;DHT22;54366;51.980;5.856;2024-03-08T02:44:45;4.50;69.90
67529;DHT22;54366;51.980;5.856;2024-03-08T02:47:11;4.40;69.80
67529;DHT22;54366;51.980;5.856;2024-03-08T02:49:38;4.40;69.90
67529;DHT22;54366;51.980;5.856;2024-03-08T02:52:04;4.40;69.90
67529;DHT22;54366;51.980;5.856;2024-03-08T02:54:31;4.30;69.90
67529;DHT22;54366;51.980;5.856;2024-03-08T02:56:57;4.40;70.10
67529;DHT22;54366;51.980;5.856;2024-03-08T02:59:24;4.30;70.10
67529;DHT22;54366;51.980;5.856;2024-03-08T03:01:50;4.30;70.30
67529;DHT22;54366;51.980;5.856;2024-03-08T03:04:17;4.30;70.30
67529;DHT22;54366;51.980;5.856;2024-03-08T03:06:43;4.30;70.30
67529;DHT22;54366;51.980;5.856;2024-03-08T03:09:09;4.40;70.40
67529;DHT22;54366;51.980;5.856;2024-03-08T03:11:36;4.30;70.40
67529;DHT22;54366;51.980;5.856;2024-03-08T03:14:03;4.30;70.40
67529;DHT22;54366;51.980;5.856;2024-03-08T03:16:30;4.20;70.40
67529;DHT22;54366;51.980;5.856;2024-03-08T03:18:56;4.20;70.40
67529;DHT22;54366;51.980;5.856;2024-03-08T03:21:28;4.20;70.40
67529;DHT22;54366;51.980;5.856;2024-03-08T03:23:57;4.20;70.50
67529;DHT22;54366;51.980;5.856;2024-03-08T03:26:25;4.20;70.50
67529;DHT22;54366;51.980;5.856;2024-03-08T03:28:52;4.10;70.40
67529;DHT22;54366;51.980;5.856;2024-03-08T03:31:19;4.10;70.50
67529;DHT22;54366;51.980;5.856;2024-03-08T03:33:46;4.10;70.50
67529;DHT22;54366;51.980;5.856;2024-03-08T03:36:13;4.00;70.40
67529;DHT22;54366;51.980;5.856;2024-03-08T03:38:40;4.00;70.50
67529;DHT22;54366;51.980;5.856;2024-03-08T03:41:06;4.00;70.60
67529;DHT22;54366;51.980;5.856;2024-03-08T03:43:37;4.00;70.60
67529;DHT22;54366;51.980;5.856;2024-03-08T03:46:07;4.00;70.70
67529;DHT22;54366;51.980;5.856;2024-03-08T03:48:36;4.00;70.80
67529;DHT22;54366;51.980;5.856;2024-03-08T03:51:03;3.90;70.80
67529;DHT22;54366;51.980;5.856;2024-03-08T03:53:30;4.00;70.90
67529;DHT22;54366;51.980;5.856;2024-03-08T03:55:56;3.90;70.80
67529;DHT22;54366;51.980;5.856;2024-03-08T03:58:23;3.90;70.80
67529;DHT22;54366;51.980;5.856;2024-03-08T04:00:50;3.90;70.80
67529;DHT22;54366;51.980;5.856;2024-03-08T04:03:16;3.90;70.80
67529;DHT22;54366;51.980;5.856;2024-03-08T04:05:43;3.90;70.90
67529;DHT22;54366;51.980;5.856;2024-03-08T04:08:09;3.90;70.90
67529;DHT22;54366;51.980;5.856;2024-03-08T04:10:35;3.90;71.00
67529;DHT22;54366;51.980;5.856;2024-03-08T04:13:02;3.90;71.00
67529;DHT22;54366;51.980;5.856;2024-03-08T04:15:29;3.90;71.10
67529;DHT22;54366;51.980;5.856;2024-03-08T04:17:56;3.80;71.00
67529;DHT22;54366;51.980;5.856;2024-03-08T04:20:23;3.90;71.00
67529;DHT22;54366;51.980;5.856;2024-03-08T04:22:49;3.80;71.00
67529;DHT22;54366;51.980;5.856;2024-03-08T04:25:16;3.80;71.10
67529;DHT22;54366;51.980;5.856;2024-03-08T04:27:42;3.80;71.10
67529;DHT22;54366;51.980;5.856;2024-03-08T04:30:09;3.80;71.10
67529;DHT22;54366;51.980;5.856;2024-03-08T04:32:36;3.70;71.00
67529;DHT22;54366;51.980;5.856;2024-03-08T04:35:02;3.70;71.10
67529;DHT22;54366;51.980;5.856;2024-03-08T04:37:29;3.80;71.30
67529;DHT22;54366;51.980;5.856;2024-03-08T04:39:56;3.70;71.20
67529;DHT22;54366;51.980;5.856;2024-03-08T04:42:22;3.70;71.20
67529;DHT22;54366;51.980;5.856;2024-03-08T04:44:49;3.70;71.20
67529;DHT22;54366;51.980;5.856;2024-03-08T04:47:15;3.70;71.20
67529;DHT22;54366;51.980;5.856;2024-03-08T04:49:44;3.70;71.20
67529;DHT22;54366;51.980;5.856;2024-03-08T04:52:10;3.70;71.20
67529;DHT22;54366;51.980;5.856;2024-03-08T04:54:37;3.70;71.30
67529;DHT22;54366;51.980;5.856;2024-03-08T04:57:03;3.70;71.20
67529;DHT22;54366;51.980;5.856;2024-03-08T04:59:30;3.70;71.30
67529;DHT22;54366;51.980;5.856;2024-03-08T05:01:57;3.70;71.30
67529;DHT22;54366;51.980;5.856;2024-03-08T05:04:23;3.60;71.30
67529;DHT22;54366;51.980;5.856;2024-03-08T05:06:50;3.60;71.30
67529;DHT22;54366;51.980;5.856;2024-03-08T05:09:16;3.60;71.20
67529;DHT22;54366;51.980;5.856;2024-03-08T05:11:44;3.60;71.30
67529;DHT22;54366;51.980;5.856;2024-03-08T05:14:11;3.60;71.40
67529;DHT22;54366;51.980;5.856;2024-03-08T05:16:38;3.60;71.50
67529;DHT22;54366;51.980;5.856;2024-03-08T05:19:06;3.60;71.50
67529;DHT22;54366;51.980;5.856;2024-03-08T05:21:32;3.60;71.50
67529;DHT22;54366;51.980;5.856;2024-03-08T05:23:59;3.60;71.50
67529;DHT22;54366;51.980;5.856;2024-03-08T05:26:25;3.50;71.50
67529;DHT22;54366;51.980;5.856;2024-03-08T05:28:51;3.50;71.50
67529;DHT22;54366;51.980;5.856;2024-03-08T05:31:23;3.50;71.50
67529;DHT22;54366;51.980;5.856;2024-03-08T05:33:49;3.50;71.50
67529;DHT22;54366;51.980;5.856;2024-03-08T05:36:16;3.50;71.50
67529;DHT22;54366;51.980;5.856;2024-03-08T05:38:43;3.50;71.50
67529;DHT22;54366;51.980;5.856;2024-03-08T05:41:10;3.50;71.60
67529;DHT22;54366;51.980;5.856;2024-03-08T05:43:40;3.50;71.60
67529;DHT22;54366;51.980;5.856;2024-03-08T05:46:06;3.50;71.50
67529;DHT22;54366;51.980;5.856;2024-03-08T05:48:33;3.50;71.60
67529;DHT22;54366;51.980;5.856;2024-03-08T05:51:02;3.50;71.70
67529;DHT22;54366;51.980;5.856;2024-03-08T05:53:29;3.50;71.70
67529;DHT22;54366;51.980;5.856;2024-03-08T05:58:25;3.50;71.60
67529;DHT22;54366;51.980;5.856;2024-03-08T06:00:51;3.50;71.50
67529;DHT22;54366;51.980;5.856;2024-03-08T06:03:18;3.40;71.40
67529;DHT22;54366;51.980;5.856;2024-03-08T06:05:48;3.40;71.40
67529;DHT22;54366;51.980;5.856;2024-03-08T06:08:15;3.40;71.50
67529;DHT22;54366;51.980;5.856;2024-03-08T06:10:42;3.40;71.40
67529;DHT22;54366;51.980;5.856;2024-03-08T06:13:08;3.40;71.50
67529;DHT22;54366;51.980;5.856;2024-03-08T06:15:34;3.40;71.60
67529;DHT22;54366;51.980;5.856;2024-03-08T06:18:01;3.40;71.50
67529;DHT22;54366;51.980;5.856;2024-03-08T06:20:27;3.40;71.60
67529;DHT22;54366;51.980;5.856;2024-03-08T06:22:54;3.30;71.60
67529;DHT22;54366;51.980;5.856;2024-03-08T06:25:20;3.30;71.60
67529;DHT22;54366;51.980;5.856;2024-03-08T06:27:47;3.30;71.60
67529;DHT22;54366;51.980;5.856;2024-03-08T06:30:13;3.40;71.80
67529;DHT22;54366;51.980;5.856;2024-03-08T06:32:42;3.30;71.70
67529;DHT22;54366;51.980;5.856;2024-03-08T06:35:09;3.30;71.80
67529;DHT22;54366;51.980;5.856;2024-03-08T06:37:36;3.40;71.80
67529;DHT22;54366;51.980;5.856;2024-03-08T06:40:03;3.30;71.70
67529;DHT22;54366;51.980;5.856;2024-03-08T06:42:30;3.40;71.80
67529;DHT22;54366;51.980;5.856;2024-03-08T06:45:02;3.40;71.80
67529;DHT22;54366;51.980;5.856;2024-03-08T06:47:32;3.40;71.70
67529;DHT22;54366;51.980;5.856;2024-03-08T06:49:59;3.40;71.70
67529;DHT22;54366;51.980;5.856;2024-03-08T06:52:25;3.40;71.70
67529;DHT22;54366;51.980;5.856;2024-03-08T06:54:52;3.40;71.70
67529;DHT22;54366;51.980;5.856;2024-03-08T06:57:19;3.40;71.80
67529;DHT22;54366;51.980;5.856;2024-03-08T06:59:48;3.40;71.80
67529;DHT22;54366;51.980;5.856;2024-03-08T07:02:15;3.40;71.80
67529;DHT22;54366;51.980;5.856;2024-03-08T07:04:41;3.50;71.70
67529;DHT22;54366;51.980;5.856;2024-03-08T07:07:08;3.40;71.60
67529;DHT22;54366;51.980;5.856;2024-03-08T07:09:37;3.50;71.60
67529;DHT22;54366;51.980;5.856;2024-03-08T07:12:03;3.50;71.50
67529;DHT22;54366;51.980;5.856;2024-03-08T07:14:30;3.60;71.50
67529;DHT22;54366;51.980;5.856;2024-03-08T07:16:59;3.60;71.50
67529;DHT22;54366;51.980;5.856;2024-03-08T07:19:25;3.50;71.40
67529;DHT22;54366;51.980;5.856;2024-03-08T07:21:52;3.60;71.40
67529;DHT22;54366;51.980;5.856;2024-03-08T07:24:18;3.60;71.40
67529;DHT22;54366;51.980;5.856;2024-03-08T07:27:04;3.60;71.20
67529;DHT22;54366;51.980;5.856;2024-03-08T07:29:34;3.70;71.10
67529;DHT22;54366;51.980;5.856;2024-03-08T07:32:01;3.70;71.20
67529;DHT22;54366;51.980;5.856;2024-03-08T07:34:59;3.70;71.10
67529;DHT22;54366;51.980;5.856;2024-03-08T07:37:26;3.80;71.00
67529;DHT22;54366;51.980;5.856;2024-03-08T07:39:52;3.80;71.10
67529;DHT22;54366;51.980;5.856;2024-03-08T07:42:19;3.80;71.00
67529;DHT22;54366;51.980;5.856;2024-03-08T07:44:45;3.80;70.90
67529;DHT22;54366;51.980;5.856;2024-03-08T07:47:14;3.80;70.80
67529;DHT22;54366;51.980;5.856;2024-03-08T07:49:40;3.90;70.90
67529;DHT22;54366;51.980;5.856;2024-03-08T07:52:07;3.80;70.60
67529;DHT22;54366;51.980;5.856;2024-03-08T07:54:33;3.90;70.70
67529;DHT22;54366;51.980;5.856;2024-03-08T07:57:01;3.90;70.70
67529;DHT22;54366;51.980;5.856;2024-03-08T07:59:29;4.00;70.60
67529;DHT22;54366;51.980;5.856;2024-03-08T08:01:56;4.10;70.60
67529;DHT22;54366;51.980;5.856;2024-03-08T08:04:23;4.10;70.70
67529;DHT22;54366;51.980;5.856;2024-03-08T08:06:50;4.10;70.60
67529;DHT22;54366;51.980;5.856;2024-03-08T08:09:17;4.20;70.50
67529;DHT22;54366;51.980;5.856;2024-03-08T08:11:55;4.30;70.20
67529;DHT22;54366;51.980;5.856;2024-03-08T08:14:21;4.30;70.30
67529;DHT22;54366;51.980;5.856;2024-03-08T08:16:47;4.40;70.00
67529;DHT22;54366;51.980;5.856;2024-03-08T08:19:16;4.40;69.90
67529;DHT22;54366;51.980;5.856;2024-03-08T08:21:42;4.50;69.70
67529;DHT22;54366;51.980;5.856;2024-03-08T08:24:08;4.50;69.80
67529;DHT22;54366;51.980;5.856;2024-03-08T08:26:35;4.60;69.50
67529;DHT22;54366;51.980;5.856;2024-03-08T08:29:02;4.70;69.40
67529;DHT22;54366;51.980;5.856;2024-03-08T08:31:28;4.80;69.40
67529;DHT22;54366;51.980;5.856;2024-03-08T08:33:55;4.80;68.90
67529;DHT22;54366;51.980;5.856;2024-03-08T08:36:24;5.00;68.60
67529;DHT22;54366;51.980;5.856;2024-03-08T08:38:51;5.00;68.50
67529;DHT22;54366;51.980;5.856;2024-03-08T08:41:20;5.20;68.60
67529;DHT22;54366;51.980;5.856;2024-03-08T08:43:48;5.30;68.20
67529;DHT22;54366;51.980;5.856;2024-03-08T08:46:18;5.30;67.80
67529;DHT22;54366;51.980;5.856;2024-03-08T08:48:44;5.50;67.80
67529;DHT22;54366;51.980;5.856;2024-03-08T08:51:14;5.60;67.10
67529;DHT22;54366;51.980;5.856;2024-03-08T08:53:42;5.70;67.10
67529;DHT22;54366;51.980;5.856;2024-03-08T08:56:13;5.80;66.90
67529;DHT22;54366;51.980;5.856;2024-03-08T08:58:40;5.90;66.30
67529;DHT22;54366;51.980;5.856;2024-03-08T09:01:09;6.00;66.40
67529;DHT22;54366;51.980;5.856;2024-03-08T09:03:39;6.20;66.10
67529;DHT22;54366;51.980;5.856;2024-03-08T09:06:07;6.20;65.20
67529;DHT22;54366;51.980;5.856;2024-03-08T09:08:37;6.30;65.30
67529;DHT22;54366;51.980;5.856;2024-03-08T09:11:04;6.40;64.50
67529;DHT22;54366;51.980;5.856;2024-03-08T09:13:31;6.50;64.80
67529;DHT22;54366;51.980;5.856;2024-03-08T09:16:00;6.60;65.10
67529;DHT22;54366;51.980;5.856;2024-03-08T09:18:26;6.70;64.40
67529;DHT22;54366;51.980;5.856;2024-03-08T09:20:53;6.80;64.30
67529;DHT22;54366;51.980;5.856;2024-03-08T09:23:20;7.00;64.00
67529;DHT22;54366;51.980;5.856;2024-03-08T09:25:46;7.10;63.60
67529;DHT22;54366;51.980;5.856;2024-03-08T09:28:13;7.20;63.80
67529;DHT22;54366;51.980;5.856;2024-03-08T09:30:40;7.30;64.10
67529;DHT22;54366;51.980;5.856;2024-03-08T09:33:06;7.50;64.10
67529;DHT22;54366;51.980;5.856;2024-03-08T09:35:33;7.60;63.70
67529;DHT22;54366;51.980;5.856;2024-03-08T09:37:59;7.70;63.40
67529;DHT22;54366;51.980;5.856;2024-03-08T09:40:26;7.80;62.50
67529;DHT22;54366;51.980;5.856;2024-03-08T09:42:53;7.80;62.20
67529;DHT22;54366;51.980;5.856;2024-03-08T09:45:21;8.00;62.10
67529;DHT22;54366;51.980;5.856;2024-03-08T09:47:48;8.10;61.20
67529;DHT22;54366;51.980;5.856;2024-03-08T09:50:17;8.10;60.30
67529;DHT22;54366;51.980;5.856;2024-03-08T09:52:47;8.20;61.00
67529;DHT22;54366;51.980;5.856;2024-03-08T09:55:16;8.30;60.70
67529;DHT22;54366;51.980;5.856;2024-03-08T09:57:43;8.40;61.00
67529;DHT22;54366;51.980;5.856;2024-03-08T10:00:33;8.50;60.50
67529;DHT22;54366;51.980;5.856;2024-03-08T10:03:02;8.60;59.90
67529;DHT22;54366;51.980;5.856;2024-03-08T10:05:30;8.70;60.10
67529;DHT22;54366;51.980;5.856;2024-03-08T10:07:59;8.80;59.80
67529;DHT22;54366;51.980;5.856;2024-03-08T10:10:25;8.80;59.80
67529;DHT22;54366;51.980;5.856;2024-03-08T10:12:52;9.00;59.90
67529;DHT22;54366;51.980;5.856;2024-03-08T10:15:19;9.10;59.70
67529;DHT22;54366;51.980;5.856;2024-03-08T10:17:46;9.20;59.50
67529;DHT22;54366;51.980;5.856;2024-03-08T10:20:16;9.30;59.20
67529;DHT22;54366;51.980;5.856;2024-03-08T10:22:43;9.30;58.50
67529;DHT22;54366;51.980;5.856;2024-03-08T10:25:11;9.40;57.90
67529;DHT22;54366;51.980;5.856;2024-03-08T10:27:40;9.50;58.00
67529;DHT22;54366;51.980;5.856;2024-03-08T10:30:15;9.60;58.20
67529;DHT22;54366;51.980;5.856;2024-03-08T10:32:42;9.60;57.60
67529;DHT22;54366;51.980;5.856;2024-03-08T10:35:08;9.80;57.10
67529;DHT22;54366;51.980;5.856;2024-03-08T10:37:44;9.80;57.80
67529;DHT22;54366;51.980;5.856;2024-03-08T10:40:20;9.90;56.60
67529;DHT22;54366;51.980;5.856;2024-03-08T10:42:57;10.10;57.60
67529;DHT22;54366;51.980;5.856;2024-03-08T10:45:42;10.20;55.10
67529;DHT22;54366;51.980;5.856;2024-03-08T10:48:31;10.30;54.20
67529;DHT22;54366;51.980;5.856;2024-03-08T10:51:03;10.40;54.70
67529;DHT22;54366;51.980;5.856;2024-03-08T10:53:30;10.40;54.90
67529;DHT22;54366;51.980;5.856;2024-03-08T10:55:57;10.50;54.00
67529;DHT22;54366;51.980;5.856;2024-03-08T10:58:25;10.60;54.20
67529;DHT22;54366;51.980;5.856;2024-03-08T11:00:58;10.70;54.60
67529;DHT22;54366;51.980;5.856;2024-03-08T11:04:00;10.90;54.80
67529;DHT22;54366;51.980;5.856;2024-03-08T11:07:05;11.00;54.50
67529;DHT22;54366;51.980;5.856;2024-03-08T11:09:36;11.10;53.80
67529;DHT22;54366;51.980;5.856;2024-03-08T11:12:24;11.20;52.70
67529;DHT22;54366;51.980;5.856;2024-03-08T11:14:59;11.20;52.00
67529;DHT22;54366;51.980;5.856;2024-03-08T11:17:41;11.30;51.40
67529;DHT22;54366;51.980;5.856;2024-03-08T11:20:15;11.40;50.90
67529;DHT22;54366;51.980;5.856;2024-03-08T11:23:03;11.40;52.20
67529;DHT22;54366;51.980;5.856;2024-03-08T11:25:40;11.50;51.70
67529;DHT22;54366;51.980;5.856;2024-03-08T11:28:19;11.60;50.60
67529;DHT22;54366;51.980;5.856;2024-03-08T11:31:24;11.80;51.70
67529;DHT22;54366;51.980;5.856;2024-03-08T11:33:52;11.90;50.70
67529;DHT22;54366;51.980;5.856;2024-03-08T11:36:23;11.90;49.50
67529;DHT22;54366;51.980;5.856;2024-03-08T11:38:51;11.80;49.30
67529;DHT22;54366;51.980;5.856;2024-03-08T11:41:19;11.90;49.40
67529;DHT22;54366;51.980;5.856;2024-03-08T11:43:47;12.00;49.30
67529;DHT22;54366;51.980;5.856;2024-03-08T11:46:15;12.10;48.40
67529;DHT22;54366;51.980;5.856;2024-03-08T11:48:44;12.20;48.40
67529;DHT22;54366;51.980;5.856;2024-03-08T11:51:15;12.20;49.00
67529;DHT22;54366;51.980;5.856;2024-03-08T11:53:42;12.30;49.00
67529;DHT22;54366;51.980;5.856;2024-03-08T11:56:09;12.30;47.70
67529;DHT22;54366;51.980;5.856;2024-03-08T11:58:38;12.30;48.10
67529;DHT22;54366;51.980;5.856;2024-03-08T12:01:05;12.40;48.60
67529;DHT22;54366;51.980;5.856;2024-03-08T12:03:32;12.50;47.60
67529;DHT22;54366;51.980;5.856;2024-03-08T12:06:00;12.50;47.60
67529;DHT22;54366;51.980;5.856;2024-03-08T12:08:28;12.60;45.70
67529;DHT22;54366;51.980;5.856;2024-03-08T12:10:54;12.50;45.50
67529;DHT22;54366;51.980;5.856;2024-03-08T12:13:27;12.60;45.20
67529;DHT22;54366;51.980;5.856;2024-03-08T12:15:57;12.60;45.60
67529;DHT22;54366;51.980;5.856;2024-03-08T12:18:27;12.70;45.50
67529;DHT22;54366;51.980;5.856;2024-03-08T12:21:11;12.70;45.30
67529;DHT22;54366;51.980;5.856;2024-03-08T12:23:38;12.70;45.20
67529;DHT22;54366;51.980;5.856;2024-03-08T12:26:18;12.70;46.20
67529;DHT22;54366;51.980;5.856;2024-03-08T12:28:49;12.70;46.90
67529;DHT22;54366;51.980;5.856;2024-03-08T12:31:16;12.80;47.50
67529;DHT22;54366;51.980;5.856;2024-03-08T12:33:52;12.90;46.60
67529;DHT22;54366;51.980;5.856;2024-03-08T12:36:21;13.00;45.60
67529;DHT22;54366;51.980;5.856;2024-03-08T12:38:47;13.00;46.00
67529;DHT22;54366;51.980;5.856;2024-03-08T12:41:18;13.00;44.90
67529;DHT22;54366;51.980;5.856;2024-03-08T12:43:48;12.90;44.40
67529;DHT22;54366;51.980;5.856;2024-03-08T12:46:18;12.90;44.50
67529;DHT22;54366;51.980;5.856;2024-03-08T12:48:48;12.80;44.90
67529;DHT22;54366;51.980;5.856;2024-03-08T12:51:16;12.90;45.40
67529;DHT22;54366;51.980;5.856;2024-03-08T12:53:42;12.90;46.10
67529;DHT22;54366;51.980;5.856;2024-03-08T12:56:10;12.90;45.60
67529;DHT22;54366;51.980;5.856;2024-03-08T12:58:37;12.80;46.10
67529;DHT22;54366;51.980;5.856;2024-03-08T13:01:05;12.80;46.30
67529;DHT22;54366;51.980;5.856;2024-03-08T13:03:34;12.80;46.40
67529;DHT22;54366;51.980;5.856;2024-03-08T13:06:05;12.80;45.80
67529;DHT22;54366;51.980;5.856;2024-03-08T13:08:38;12.80;46.00
67529;DHT22;54366;51.980;5.856;2024-03-08T13:11:07;12.80;46.60
67529;DHT22;54366;51.980;5.856;2024-03-08T13:13:34;12.80;46.30
67529;DHT22;54366;51.980;5.856;2024-03-08T13:16:06;12.80;45.80
67529;DHT22;54366;51.980;5.856;2024-03-08T13:18:36;12.80;46.60
67529;DHT22;54366;51.980;5.856;2024-03-08T13:21:03;12.70;45.90
67529;DHT22;54366;51.980;5.856;2024-03-08T13:23:36;12.60;45.40
67529;DHT22;54366;51.980;5.856;2024-03-08T13:26:07;12.50;46.20
67529;DHT22;54366;51.980;5.856;2024-03-08T13:28:34;12.50;46.60
67529;DHT22;54366;51.980;5.856;2024-03-08T13:31:04;12.40;46.50
67529;DHT22;54366;51.980;5.856;2024-03-08T13:33:33;12.30;47.20
67529;DHT22;54366;51.980;5.856;2024-03-08T13:36:03;12.20;47.00
67529;DHT22;54366;51.980;5.856;2024-03-08T13:38:32;12.10;46.70
67529;DHT22;54366;51.980;5.856;2024-03-08T13:40:59;12.00;47.30
67529;DHT22;54366;51.980;5.856;2024-03-08T13:43:26;12.00;47.90
67529;DHT22;54366;51.980;5.856;2024-03-08T13:45:55;11.90;48.30
67529;DHT22;54366;51.980;5.856;2024-03-08T13:48:21;11.90;48.60
67529;DHT22;54366;51.980;5.856;2024-03-08T13:50:49;11.90;48.90
67529;DHT22;54366;51.980;5.856;2024-03-08T13:53:16;12.00;48.90
67529;DHT22;54366;51.980;5.856;2024-03-08T13:55:42;11.90;48.70
67529;DHT22;54366;51.980;5.856;2024-03-08T13:58:08;11.90;47.30
67529;DHT22;54366;51.980;5.856;2024-03-08T14:00:36;11.80;47.90
67529;DHT22;54366;51.980;5.856;2024-03-08T14:03:02;11.80;48.00
67529;DHT22;54366;51.980;5.856;2024-03-08T14:05:32;11.80;48.00
67529;DHT22;54366;51.980;5.856;2024-03-08T14:08:05;11.70;48.20
67529;DHT22;54366;51.980;5.856;2024-03-08T14:10:34;11.70;48.30
67529;DHT22;54366;51.980;5.856;2024-03-08T14:13:00;11.60;48.20
67529;DHT22;54366;51.980;5.856;2024-03-08T14:15:33;11.60;48.20
67529;DHT22;54366;51.980;5.856;2024-03-08T14:18:08;11.50;48.20
67529;DHT22;54366;51.980;5.856;2024-03-08T14:20:34;11.50;48.70
67529;DHT22;54366;51.980;5.856;2024-03-08T14:23:01;11.50;48.80
67529;DHT22;54366;51.980;5.856;2024-03-08T14:25:27;11.50;49.40
67529;DHT22;54366;51.980;5.856;2024-03-08T14:27:56;11.50;49.20
67529;DHT22;54366;51.980;5.856;2024-03-08T14:30:28;11.40;48.50
67529;DHT22;54366;51.980;5.856;2024-03-08T14:33:07;11.40;48.30
67529;DHT22;54366;51.980;5.856;2024-03-08T14:35:38;11.40;49.00
67529;DHT22;54366;51.980;5.856;2024-03-08T14:38:05;11.40;49.10
67529;DHT22;54366;51.980;5.856;2024-03-08T14:40:34;11.40;49.70
67529;DHT22;54366;51.980;5.856;2024-03-08T14:43:02;11.50;49.40
67529;DHT22;54366;51.980;5.856;2024-03-08T14:45:28;11.50;49.20
67529;DHT22;54366;51.980;5.856;2024-03-08T14:47:55;11.50;49.70
67529;DHT22;54366;51.980;5.856;2024-03-08T14:50:22;11.50;49.40
67529;DHT22;54366;51.980;5.856;2024-03-08T14:52:50;11.60;49.60
67529;DHT22;54366;51.980;5.856;2024-03-08T14:55:20;11.50;49.10
67529;DHT22;54366;51.980;5.856;2024-03-08T14:57:51;11.50;48.30
67529;DHT22;54366;51.980;5.856;2024-03-08T15:00:21;11.50;48.50
67529;DHT22;54366;51.980;5.856;2024-03-08T15:02:56;11.50;49.10
67529;DHT22;54366;51.980;5.856;2024-03-08T15:05:25;11.50;49.30
67529;DHT22;54366;51.980;5.856;2024-03-08T15:07:58;11.50;49.40
67529;DHT22;54366;51.980;5.856;2024-03-08T15:10:28;11.40;49.10
67529;DHT22;54366;51.980;5.856;2024-03-08T15:12:56;11.40;49.40
67529;DHT22;54366;51.980;5.856;2024-03-08T15:15:25;11.40;49.50
67529;DHT22;54366;51.980;5.856;2024-03-08T15:17:52;11.40;49.10
67529;DHT22;54366;51.980;5.856;2024-03-08T15:20:20;11.40;49.50
67529;DHT22;54366;51.980;5.856;2024-03-08T15:22:55;11.40;49.90
67529;DHT22;54366;51.980;5.856;2024-03-08T15:25:24;11.40;50.10
67529;DHT22;54366;51.980;5.856;2024-03-08T15:27:54;11.40;49.90
67529;DHT22;54366;51.980;5.856;2024-03-08T15:30:21;11.40;50.10
67529;DHT22;54366;51.980;5.856;2024-03-08T15:32:55;11.40;49.70
67529;DHT22;54366;51.980;5.856;2024-03-08T15:35:26;11.40;49.70
67529;DHT22;54366;51.980;5.856;2024-03-08T15:37:53;11.40;49.40
67529;DHT22;54366;51.980;5.856;2024-03-08T15:40:21;11.40;49.80
67529;DHT22;54366;51.980;5.856;2024-03-08T15:42:59;11.40;48.90
67529;DHT22;54366;51.980;5.856;2024-03-08T15:45:26;11.30;49.50
67529;DHT22;54366;51.980;5.856;2024-03-08T15:47:58;11.30;50.70
67529;DHT22;54366;51.980;5.856;2024-03-08T15:50:25;11.30;50.00